sensor_id;sensor_type;location;lat;lon;timestamp;P1;durP1;ratioP1;P2;durP2;ratioP2
75441;SDS011;64019;48.312;14.226;2022-10-20T00:01:14;15.70;;;6.17;;
75441;SDS011;64019;48.312;14.226;2022-10-20T00:03:42;11.30;;;4.60;;
75441;SDS011;64019;48.312;14.226;2022-10-20T00:06:10;8.77;;;5.10;;
75441;SDS011;64019;48.312;14.226;2022-10-20T00:08:38;8.53;;;4.37;;
75441;SDS011;64019;48.312;14.226;2022-10-20T00:11:06;7.67;;;4.87;;
75441;SDS011;64019;48.312;14.226;2022-10-20T00:13:33;9.70;;;5.00;;
75441;SDS011;64019;48.312;14.226;2022-10-20T00:15:59;12.73;;;5.43;;
75441;SDS011;64019;48.312;14.226;2022-10-20T00:18:25;9.77;;;5.40;;
75441;SDS011;64019;48.312;14.226;2022-10-20T00:20:51;13.20;;;5.60;;
75441;SDS011;64019;48.312;14.226;2022-10-20T00:23:17;10.53;;;5.23;;
75441;SDS011;64019;48.312;14.226;2022-10-20T00:25:43;11.33;;;5.00;;
75441;SDS011;64019;48.312;14.226;2022-10-20T00:28:09;7.53;;;4.77;;
75441;SDS011;64019;48.312;14.226;2022-10-20T00:30:34;11.07;;;5.40;;
75441;SDS011;64019;48.312;14.226;2022-10-20T00:33:01;11.67;;;5.20;;
75441;SDS011;64019;48.312;14.226;2022-10-20T00:35:27;12.03;;;5.00;;
75441;SDS011;64019;48.312;14.226;2022-10-20T00:37:53;9.70;;;5.20;;
75441;SDS011;64019;48.312;14.226;2022-10-20T00:40:19;10.57;;;5.40;;
75441;SDS011;64019;48.312;14.226;2022-10-20T00:42:45;10.10;;;4.77;;
75441;SDS011;64019;48.312;14.226;2022-10-20T00:45:13;11.30;;;5.43;;
75441;SDS011;64019;48.312;14.226;2022-10-20T00:47:42;9.33;;;5.07;;
75441;SDS011;64019;48.312;14.226;2022-10-20T00:50:18;9.87;;;4.87;;
75441;SDS011;64019;48.312;14.226;2022-10-20T00:52:47;11.87;;;5.53;;
75441;SDS011;64019;48.312;14.226;2022-10-20T00:55:24;11.37;;;5.77;;
75441;SDS011;64019;48.312;14.226;2022-10-20T00:57:53;9.63;;;5.87;;
75441;SDS011;64019;48.312;14.226;2022-10-20T01:00:21;9.17;;;5.57;;
75441;SDS011;64019;48.312;14.226;2022-10-20T01:02:51;8.73;;;6.07;;
75441;SDS011;64019;48.312;14.226;2022-10-20T01:05:18;10.20;;;5.67;;
75441;SDS011;64019;48.312;14.226;2022-10-20T01:07:45;11.73;;;5.97;;
75441;SDS011;64019;48.312;14.226;2022-10-20T01:10:10;13.80;;;5.97;;
75441;SDS011;64019;48.312;14.226;2022-10-20T01:32:06;12.50;;;6.13;;
75441;SDS011;64019;48.312;14.226;2022-10-20T01:34:45;9.17;;;5.97;;
75441;SDS011;64019;48.312;14.226;2022-10-20T01:37:24;11.67;;;6.27;;
75441;SDS011;64019;48.312;14.226;2022-10-20T01:40:00;10.10;;;6.13;;
75441;SDS011;64019;48.312;14.226;2022-10-20T01:42:34;13.17;;;6.60;;
75441;SDS011;64019;48.312;14.226;2022-10-20T01:45:03;8.37;;;5.77;;
75441;SDS011;64019;48.312;14.226;2022-10-20T01:47:31;9.37;;;6.53;;
75441;SDS011;64019;48.312;14.226;2022-10-20T01:49:59;9.27;;;6.10;;
75441;SDS011;64019;48.312;14.226;2022-10-20T01:52:27;12.17;;;5.63;;
75441;SDS011;64019;48.312;14.226;2022-10-20T01:54:53;11.10;;;6.57;;
75441;SDS011;64019;48.312;14.226;2022-10-20T02:00:03;11.03;;;6.30;;
75441;SDS011;64019;48.312;14.226;2022-10-20T02:05:36;10.47;;;5.90;;
75441;SDS011;64019;48.312;14.226;2022-10-20T02:11:08;12.17;;;6.33;;
75441;SDS011;64019;48.312;14.226;2022-10-20T02:13:43;9.90;;;6.50;;
75441;SDS011;64019;48.312;14.226;2022-10-20T02:16:11;11.17;;;6.47;;
75441;SDS011;64019;48.312;14.226;2022-10-20T02:18:41;12.23;;;6.63;;
75441;SDS011;64019;48.312;14.226;2022-10-20T02:21:10;16.17;;;6.57;;
75441;SDS011;64019;48.312;14.226;2022-10-20T02:23:37;8.77;;;5.53;;
75441;SDS011;64019;48.312;14.226;2022-10-20T02:26:05;9.73;;;6.53;;
75441;SDS011;64019;48.312;14.226;2022-10-20T02:28:33;16.40;;;7.57;;
75441;SDS011;64019;48.312;14.226;2022-10-20T02:31:01;13.27;;;6.33;;
75441;SDS011;64019;48.312;14.226;2022-10-20T02:33:28;9.83;;;5.80;;
75441;SDS011;64019;48.312;14.226;2022-10-20T02:35:55;11.87;;;6.20;;
75441;SDS011;64019;48.312;14.226;2022-10-20T02:38:22;13.40;;;5.67;;
75441;SDS011;64019;48.312;14.226;2022-10-20T02:40:48;8.23;;;5.47;;
75441;SDS011;64019;48.312;14.226;2022-10-20T02:43:14;9.63;;;5.60;;
75441;SDS011;64019;48.312;14.226;2022-10-20T02:45:40;11.17;;;5.30;;
75441;SDS011;64019;48.312;14.226;2022-10-20T02:48:05;7.70;;;5.03;;
75441;SDS011;64019;48.312;14.226;2022-10-20T02:50:34;10.63;;;5.53;;
75441;SDS011;64019;48.312;14.226;2022-10-20T02:53:00;9.30;;;5.33;;
75441;SDS011;64019;48.312;14.226;2022-10-20T02:55:25;10.80;;;5.17;;
75441;SDS011;64019;48.312;14.226;2022-10-20T02:57:51;10.13;;;6.00;;
75441;SDS011;64019;48.312;14.226;2022-10-20T03:00:18;8.40;;;5.37;;
75441;SDS011;64019;48.312;14.226;2022-10-20T03:02:44;9.37;;;4.73;;
75441;SDS011;64019;48.312;14.226;2022-10-20T03:05:11;13.13;;;5.90;;
75441;SDS011;64019;48.312;14.226;2022-10-20T03:07:37;12.13;;;5.50;;
75441;SDS011;64019;48.312;14.226;2022-10-20T03:10:03;9.27;;;4.60;;
75441;SDS011;64019;48.312;14.226;2022-10-20T03:12:33;12.83;;;5.30;;
75441;SDS011;64019;48.312;14.226;2022-10-20T03:15:01;9.23;;;5.20;;
75441;SDS011;64019;48.312;14.226;2022-10-20T03:17:53;8.47;;;5.37;;
75441;SDS011;64019;48.312;14.226;2022-10-20T03:20:24;12.07;;;5.37;;
75441;SDS011;64019;48.312;14.226;2022-10-20T03:23:13;11.73;;;5.53;;
75441;SDS011;64019;48.312;14.226;2022-10-20T03:25:39;7.87;;;4.87;;
75441;SDS011;64019;48.312;14.226;2022-10-20T03:28:28;6.33;;;5.30;;
75441;SDS011;64019;48.312;14.226;2022-10-20T03:30:53;7.03;;;5.03;;
75441;SDS011;64019;48.312;14.226;2022-10-20T03:33:19;14.23;;;5.30;;
75441;SDS011;64019;48.312;14.226;2022-10-20T03:35:45;7.77;;;4.73;;
75441;SDS011;64019;48.312;14.226;2022-10-20T03:38:10;9.30;;;4.63;;
75441;SDS011;64019;48.312;14.226;2022-10-20T03:40:36;6.63;;;4.63;;
75441;SDS011;64019;48.312;14.226;2022-10-20T03:43:02;8.13;;;5.50;;
75441;SDS011;64019;48.312;14.226;2022-10-20T03:45:27;7.87;;;5.40;;
75441;SDS011;64019;48.312;14.226;2022-10-20T03:47:54;10.23;;;4.80;;
75441;SDS011;64019;48.312;14.226;2022-10-20T04:34:32;10.40;;;6.00;;
75441;SDS011;64019;48.312;14.226;2022-10-20T04:36:58;10.50;;;5.57;;
75441;SDS011;64019;48.312;14.226;2022-10-20T04:39:24;9.60;;;5.40;;
75441;SDS011;64019;48.312;14.226;2022-10-20T04:41:50;9.20;;;5.37;;
75441;SDS011;64019;48.312;14.226;2022-10-20T04:44:16;10.57;;;5.53;;
75441;SDS011;64019;48.312;14.226;2022-10-20T04:46:41;8.67;;;5.13;;
75441;SDS011;64019;48.312;14.226;2022-10-20T04:49:07;9.20;;;5.40;;
75441;SDS011;64019;48.312;14.226;2022-10-20T04:51:33;8.70;;;5.00;;
75441;SDS011;64019;48.312;14.226;2022-10-20T04:53:59;8.97;;;5.43;;
75441;SDS011;64019;48.312;14.226;2022-10-20T04:56:25;6.57;;;5.07;;
75441;SDS011;64019;48.312;14.226;2022-10-20T04:58:51;9.83;;;5.10;;
75441;SDS011;64019;48.312;14.226;2022-10-20T05:01:19;8.83;;;4.20;;
75441;SDS011;64019;48.312;14.226;2022-10-20T05:03:46;9.13;;;5.40;;
75441;SDS011;64019;48.312;14.226;2022-10-20T05:06:31;8.93;;;4.17;;
75441;SDS011;64019;48.312;14.226;2022-10-20T05:08:58;9.27;;;4.70;;
75441;SDS011;64019;48.312;14.226;2022-10-20T05:11:26;10.40;;;4.50;;
75441;SDS011;64019;48.312;14.226;2022-10-20T05:13:53;10.23;;;4.50;;
75441;SDS011;64019;48.312;14.226;2022-10-20T05:16:19;8.60;;;4.43;;
75441;SDS011;64019;48.312;14.226;2022-10-20T05:18:46;8.47;;;5.47;;
75441;SDS011;64019;48.312;14.226;2022-10-20T05:21:16;12.23;;;5.40;;
75441;SDS011;64019;48.312;14.226;2022-10-20T05:23:43;7.63;;;4.20;;
75441;SDS011;64019;48.312;14.226;2022-10-20T05:26:10;6.03;;;4.43;;
75441;SDS011;64019;48.312;14.226;2022-10-20T05:28:38;6.60;;;4.10;;
75441;SDS011;64019;48.312;14.226;2022-10-20T05:31:08;7.03;;;5.07;;
75441;SDS011;64019;48.312;14.226;2022-10-20T05:33:34;13.27;;;4.97;;
75441;SDS011;64019;48.312;14.226;2022-10-20T05:36:07;10.03;;;5.23;;
75441;SDS011;64019;48.312;14.226;2022-10-20T05:38:36;9.93;;;4.70;;
75441;SDS011;64019;48.312;14.226;2022-10-20T05:41:09;7.27;;;4.60;;
75441;SDS011;64019;48.312;14.226;2022-10-20T05:43:37;8.50;;;5.10;;
75441;SDS011;64019;48.312;14.226;2022-10-20T05:46:03;7.00;;;4.70;;
75441;SDS011;64019;48.312;14.226;2022-10-20T05:48:30;7.47;;;5.03;;
75441;SDS011;64019;48.312;14.226;2022-10-20T05:51:05;6.70;;;4.50;;
75441;SDS011;64019;48.312;14.226;2022-10-20T05:53:31;10.50;;;4.70;;
75441;SDS011;64019;48.312;14.226;2022-10-20T05:56:01;11.27;;;5.30;;
75441;SDS011;64019;48.312;14.226;2022-10-20T05:58:28;7.53;;;4.90;;
75441;SDS011;64019;48.312;14.226;2022-10-20T06:01:01;11.30;;;4.90;;
75441;SDS011;64019;48.312;14.226;2022-10-20T06:03:53;9.40;;;5.20;;
75441;SDS011;64019;48.312;14.226;2022-10-20T06:06:23;10.90;;;5.07;;
75441;SDS011;64019;48.312;14.226;2022-10-20T06:08:51;6.87;;;4.90;;
75441;SDS011;64019;48.312;14.226;2022-10-20T06:11:17;10.23;;;4.30;;
75441;SDS011;64019;48.312;14.226;2022-10-20T06:13:44;7.10;;;4.43;;
75441;SDS011;64019;48.312;14.226;2022-10-20T06:16:16;9.83;;;4.57;;
75441;SDS011;64019;48.312;14.226;2022-10-20T06:18:44;9.43;;;4.60;;
75441;SDS011;64019;48.312;14.226;2022-10-20T06:21:10;9.33;;;4.63;;
75441;SDS011;64019;48.312;14.226;2022-10-20T06:23:41;7.80;;;4.37;;
75441;SDS011;64019;48.312;14.226;2022-10-20T06:26:08;9.63;;;4.37;;
75441;SDS011;64019;48.312;14.226;2022-10-20T06:28:35;8.63;;;4.57;;
75441;SDS011;64019;48.312;14.226;2022-10-20T06:31:36;9.87;;;4.57;;
75441;SDS011;64019;48.312;14.226;2022-10-20T06:33:58;9.40;;;4.10;;
75441;SDS011;64019;48.312;14.226;2022-10-20T06:36:25;7.73;;;4.10;;
75441;SDS011;64019;48.312;14.226;2022-10-20T06:38:55;6.70;;;3.93;;
75441;SDS011;64019;48.312;14.226;2022-10-20T06:41:22;6.00;;;3.60;;
75441;SDS011;64019;48.312;14.226;2022-10-20T06:43:49;6.63;;;3.77;;
75441;SDS011;64019;48.312;14.226;2022-10-20T06:46:21;6.53;;;3.73;;
75441;SDS011;64019;48.312;14.226;2022-10-20T06:48:47;8.17;;;3.80;;
75441;SDS011;64019;48.312;14.226;2022-10-20T06:51:14;11.63;;;3.77;;
75441;SDS011;64019;48.312;14.226;2022-10-20T06:53:43;7.33;;;3.43;;
75441;SDS011;64019;48.312;14.226;2022-10-20T06:56:11;23.37;;;4.47;;
75441;SDS011;64019;48.312;14.226;2022-10-20T06:58:38;5.07;;;3.27;;
75441;SDS011;64019;48.312;14.226;2022-10-20T07:01:06;6.70;;;3.17;;
75441;SDS011;64019;48.312;14.226;2022-10-20T07:03:35;5.77;;;3.07;;
75441;SDS011;64019;48.312;14.226;2022-10-20T07:06:02;3.80;;;2.80;;
75441;SDS011;64019;48.312;14.226;2022-10-20T07:08:29;6.00;;;2.77;;
75441;SDS011;64019;48.312;14.226;2022-10-20T07:11:00;5.33;;;2.60;;
75441;SDS011;64019;48.312;14.226;2022-10-20T07:13:27;4.87;;;2.40;;
75441;SDS011;64019;48.312;14.226;2022-10-20T07:15:54;3.47;;;2.40;;
75441;SDS011;64019;48.312;14.226;2022-10-20T07:18:22;6.53;;;2.67;;
75441;SDS011;64019;48.312;14.226;2022-10-20T07:20:49;5.00;;;2.50;;
75441;SDS011;64019;48.312;14.226;2022-10-20T07:23:15;4.07;;;2.70;;
75441;SDS011;64019;48.312;14.226;2022-10-20T07:25:41;7.50;;;2.30;;
75441;SDS011;64019;48.312;14.226;2022-10-20T07:28:07;4.47;;;2.13;;
75441;SDS011;64019;48.312;14.226;2022-10-20T07:30:36;2.60;;;1.90;;
75441;SDS011;64019;48.312;14.226;2022-10-20T07:33:03;2.63;;;2.03;;
75441;SDS011;64019;48.312;14.226;2022-10-20T07:35:29;4.83;;;2.10;;
75441;SDS011;64019;48.312;14.226;2022-10-20T07:37:55;4.60;;;2.07;;
75441;SDS011;64019;48.312;14.226;2022-10-20T07:40:20;3.73;;;2.00;;
75441;SDS011;64019;48.312;14.226;2022-10-20T07:42:46;4.10;;;2.10;;
75441;SDS011;64019;48.312;14.226;2022-10-20T07:45:12;2.67;;;2.00;;
75441;SDS011;64019;48.312;14.226;2022-10-20T07:47:37;4.83;;;1.90;;
75441;SDS011;64019;48.312;14.226;2022-10-20T07:50:03;1.53;;;1.43;;
75441;SDS011;64019;48.312;14.226;2022-10-20T07:52:29;4.20;;;1.90;;
75441;SDS011;64019;48.312;14.226;2022-10-20T07:54:55;3.70;;;2.00;;
75441;SDS011;64019;48.312;14.226;2022-10-20T07:57:21;3.10;;;2.07;;
75441;SDS011;64019;48.312;14.226;2022-10-20T07:59:47;2.40;;;1.83;;
75441;SDS011;64019;48.312;14.226;2022-10-20T08:02:13;4.20;;;2.00;;
75441;SDS011;64019;48.312;14.226;2022-10-20T08:04:40;4.03;;;1.93;;
75441;SDS011;64019;48.312;14.226;2022-10-20T08:07:08;9.50;;;2.10;;
75441;SDS011;64019;48.312;14.226;2022-10-20T08:09:34;4.83;;;1.80;;
75441;SDS011;64019;48.312;14.226;2022-10-20T08:12:00;5.80;;;2.03;;
75441;SDS011;64019;48.312;14.226;2022-10-20T08:14:27;2.20;;;2.00;;
75441;SDS011;64019;48.312;14.226;2022-10-20T08:16:57;4.23;;;1.73;;
75441;SDS011;64019;48.312;14.226;2022-10-20T08:19:23;4.70;;;1.90;;
75441;SDS011;64019;48.312;14.226;2022-10-20T08:21:49;3.73;;;1.60;;
75441;SDS011;64019;48.312;14.226;2022-10-20T08:24:15;2.97;;;1.67;;
75441;SDS011;64019;48.312;14.226;2022-10-20T08:26:41;3.73;;;2.00;;
75441;SDS011;64019;48.312;14.226;2022-10-20T08:29:07;2.73;;;1.53;;
75441;SDS011;64019;48.312;14.226;2022-10-20T08:31:33;2.97;;;1.67;;
75441;SDS011;64019;48.312;14.226;2022-10-20T08:33:58;3.33;;;1.60;;
75441;SDS011;64019;48.312;14.226;2022-10-20T08:36:24;3.83;;;2.07;;
75441;SDS011;64019;48.312;14.226;2022-10-20T08:38:52;4.53;;;1.90;;
75441;SDS011;64019;48.312;14.226;2022-10-20T08:43:52;3.93;;;1.60;;
75441;SDS011;64019;48.312;14.226;2022-10-20T08:46:22;3.33;;;1.77;;
75441;SDS011;64019;48.312;14.226;2022-10-20T08:48:53;3.80;;;1.80;;
75441;SDS011;64019;48.312;14.226;2022-10-20T08:51:20;4.10;;;2.00;;
75441;SDS011;64019;48.312;14.226;2022-10-20T08:53:48;3.47;;;1.93;;
75441;SDS011;64019;48.312;14.226;2022-10-20T08:56:15;2.53;;;1.83;;
75441;SDS011;64019;48.312;14.226;2022-10-20T08:58:42;4.70;;;1.50;;
75441;SDS011;64019;48.312;14.226;2022-10-20T09:01:28;8.60;;;1.90;;
75441;SDS011;64019;48.312;14.226;2022-10-20T09:03:58;3.80;;;1.70;;
75441;SDS011;64019;48.312;14.226;2022-10-20T09:06:46;2.47;;;1.93;;
75441;SDS011;64019;48.312;14.226;2022-10-20T09:09:16;4.20;;;2.10;;
75441;SDS011;64019;48.312;14.226;2022-10-20T09:11:45;3.53;;;2.10;;
75441;SDS011;64019;48.312;14.226;2022-10-20T09:14:11;3.27;;;2.30;;
75441;SDS011;64019;48.312;14.226;2022-10-20T09:16:38;2.77;;;2.10;;
75441;SDS011;64019;48.312;14.226;2022-10-20T09:19:10;4.33;;;1.93;;
75441;SDS011;64019;48.312;14.226;2022-10-20T09:21:41;6.47;;;2.20;;
75441;SDS011;64019;48.312;14.226;2022-10-20T09:24:09;3.40;;;1.77;;
75441;SDS011;64019;48.312;14.226;2022-10-20T09:26:37;3.10;;;1.63;;
75441;SDS011;64019;48.312;14.226;2022-10-20T09:29:10;2.67;;;1.83;;
75441;SDS011;64019;48.312;14.226;2022-10-20T09:31:38;3.37;;;1.83;;
75441;SDS011;64019;48.312;14.226;2022-10-20T09:34:22;3.63;;;1.97;;
75441;SDS011;64019;48.312;14.226;2022-10-20T09:36:54;4.33;;;2.00;;
75441;SDS011;64019;48.312;14.226;2022-10-20T09:39:27;7.03;;;1.80;;
75441;SDS011;64019;48.312;14.226;2022-10-20T09:42:03;5.10;;;1.90;;
75441;SDS011;64019;48.312;14.226;2022-10-20T09:44:32;8.37;;;1.60;;
75441;SDS011;64019;48.312;14.226;2022-10-20T09:47:10;6.23;;;2.10;;
75441;SDS011;64019;48.312;14.226;2022-10-20T09:49:38;1.97;;;1.50;;
75441;SDS011;64019;48.312;14.226;2022-10-20T09:52:14;5.03;;;2.10;;
75441;SDS011;64019;48.312;14.226;2022-10-20T09:54:45;3.07;;;1.80;;
75441;SDS011;64019;48.312;14.226;2022-10-20T09:57:15;4.03;;;1.93;;
75441;SDS011;64019;48.312;14.226;2022-10-20T09:59:44;3.27;;;2.03;;
75441;SDS011;64019;48.312;14.226;2022-10-20T10:04:48;3.53;;;1.70;;
75441;SDS011;64019;48.312;14.226;2022-10-20T10:09:58;4.17;;;1.67;;
75441;SDS011;64019;48.312;14.226;2022-10-20T10:12:29;6.07;;;2.73;;
75441;SDS011;64019;48.312;14.226;2022-10-20T10:14:57;2.80;;;2.00;;
75441;SDS011;64019;48.312;14.226;2022-10-20T10:19:58;4.47;;;2.10;;
75441;SDS011;64019;48.312;14.226;2022-10-20T10:22:24;5.53;;;2.00;;
75441;SDS011;64019;48.312;14.226;2022-10-20T10:24:50;2.83;;;2.10;;
75441;SDS011;64019;48.312;14.226;2022-10-20T10:27:27;3.23;;;2.30;;
75441;SDS011;64019;48.312;14.226;2022-10-20T10:32:51;2.50;;;2.17;;
75441;SDS011;64019;48.312;14.226;2022-10-20T10:35:24;7.57;;;2.43;;
75441;SDS011;64019;48.312;14.226;2022-10-20T10:37:57;5.37;;;2.70;;
75441;SDS011;64019;48.312;14.226;2022-10-20T10:43:04;4.60;;;2.57;;
75441;SDS011;64019;48.312;14.226;2022-10-20T10:45:57;7.93;;;3.20;;
75441;SDS011;64019;48.312;14.226;2022-10-20T10:57:03;7.57;;;2.90;;
75441;SDS011;64019;48.312;14.226;2022-10-20T10:59:39;6.37;;;3.13;;
75441;SDS011;64019;48.312;14.226;2022-10-20T11:28:57;5.17;;;2.67;;
75441;SDS011;64019;48.312;14.226;2022-10-20T11:34:05;7.83;;;3.30;;
75441;SDS011;64019;48.312;14.226;2022-10-20T11:36:40;6.70;;;2.90;;
75441;SDS011;64019;48.312;14.226;2022-10-20T11:39:19;6.67;;;3.10;;
75441;SDS011;64019;48.312;14.226;2022-10-20T11:41:53;3.90;;;2.87;;
75441;SDS011;64019;48.312;14.226;2022-10-20T11:44:30;6.57;;;3.13;;
75441;SDS011;64019;48.312;14.226;2022-10-20T11:47:02;5.70;;;3.67;;
75441;SDS011;64019;48.312;14.226;2022-10-20T11:49:31;7.77;;;3.40;;
75441;SDS011;64019;48.312;14.226;2022-10-20T11:52:47;6.97;;;3.70;;
75441;SDS011;64019;48.312;14.226;2022-10-20T11:55:04;5.93;;;3.40;;
75441;SDS011;64019;48.312;14.226;2022-10-20T11:57:43;6.50;;;3.00;;
75441;SDS011;64019;48.312;14.226;2022-10-20T12:14:29;7.47;;;3.93;;
75441;SDS011;64019;48.312;14.226;2022-10-20T12:19:50;8.10;;;3.30;;
75441;SDS011;64019;48.312;14.226;2022-10-20T12:27:20;6.07;;;3.30;;
75441;SDS011;64019;48.312;14.226;2022-10-20T12:29:49;9.47;;;3.47;;
75441;SDS011;64019;48.312;14.226;2022-10-20T12:32:36;9.03;;;3.37;;
75441;SDS011;64019;48.312;14.226;2022-10-20T12:37:53;7.10;;;3.43;;
75441;SDS011;64019;48.312;14.226;2022-10-20T12:40:30;12.17;;;4.10;;
75441;SDS011;64019;48.312;14.226;2022-10-20T12:43:46;8.10;;;4.33;;
75441;SDS011;64019;48.312;14.226;2022-10-20T12:46:16;5.70;;;3.90;;
75441;SDS011;64019;48.312;14.226;2022-10-20T12:48:47;7.40;;;3.87;;
75441;SDS011;64019;48.312;14.226;2022-10-20T12:51:26;8.23;;;3.73;;
75441;SDS011;64019;48.312;14.226;2022-10-20T12:54:03;5.47;;;3.50;;
75441;SDS011;64019;48.312;14.226;2022-10-20T12:56:45;12.37;;;3.80;;
75441;SDS011;64019;48.312;14.226;2022-10-20T12:59:22;6.27;;;3.83;;
75441;SDS011;64019;48.312;14.226;2022-10-20T13:18:00;7.97;;;3.43;;
75441;SDS011;64019;48.312;14.226;2022-10-20T13:20:56;9.90;;;3.40;;
75441;SDS011;64019;48.312;14.226;2022-10-20T13:26:07;7.90;;;4.17;;
75441;SDS011;64019;48.312;14.226;2022-10-20T13:28:46;9.77;;;3.30;;
75441;SDS011;64019;48.312;14.226;2022-10-20T13:43:13;8.50;;;4.33;;
75441;SDS011;64019;48.312;14.226;2022-10-20T13:45:56;6.57;;;3.77;;
75441;SDS011;64019;48.312;14.226;2022-10-20T13:51:30;8.17;;;4.07;;
75441;SDS011;64019;48.312;14.226;2022-10-20T13:54:02;7.47;;;4.37;;
75441;SDS011;64019;48.312;14.226;2022-10-20T13:56:36;7.80;;;3.67;;
75441;SDS011;64019;48.312;14.226;2022-10-20T14:01:37;9.67;;;4.27;;
75441;SDS011;64019;48.312;14.226;2022-10-20T14:06:49;11.17;;;4.33;;
75441;SDS011;64019;48.312;14.226;2022-10-20T14:11:43;5.70;;;3.87;;
75441;SDS011;64019;48.312;14.226;2022-10-20T14:14:22;7.70;;;3.97;;
75441;SDS011;64019;48.312;14.226;2022-10-20T14:19:30;6.87;;;3.87;;
75441;SDS011;64019;48.312;14.226;2022-10-20T14:22:05;7.93;;;4.10;;
75441;SDS011;64019;48.312;14.226;2022-10-20T14:24:54;8.10;;;4.73;;
75441;SDS011;64019;48.312;14.226;2022-10-20T14:29:50;10.30;;;4.23;;
75441;SDS011;64019;48.312;14.226;2022-10-20T14:32:21;8.53;;;4.60;;
75441;SDS011;64019;48.312;14.226;2022-10-20T14:34:54;9.07;;;4.30;;
75441;SDS011;64019;48.312;14.226;2022-10-20T14:37:28;9.07;;;3.80;;
75441;SDS011;64019;48.312;14.226;2022-10-20T14:39:55;8.27;;;4.67;;
75441;SDS011;64019;48.312;14.226;2022-10-20T14:42:26;8.47;;;4.30;;
75441;SDS011;64019;48.312;14.226;2022-10-20T14:44:55;10.40;;;4.33;;
75441;SDS011;64019;48.312;14.226;2022-10-20T14:47:22;12.30;;;4.60;;
75441;SDS011;64019;48.312;14.226;2022-10-20T14:49:49;6.90;;;4.43;;
75441;SDS011;64019;48.312;14.226;2022-10-20T14:52:19;10.90;;;4.13;;
75441;SDS011;64019;48.312;14.226;2022-10-20T14:54:47;7.83;;;3.80;;
75441;SDS011;64019;48.312;14.226;2022-10-20T14:59:54;7.87;;;4.67;;
75441;SDS011;64019;48.312;14.226;2022-10-20T15:02:31;6.87;;;4.53;;
75441;SDS011;64019;48.312;14.226;2022-10-20T15:07:45;10.27;;;4.97;;
75441;SDS011;64019;48.312;14.226;2022-10-20T15:10:14;7.13;;;4.30;;
75441;SDS011;64019;48.312;14.226;2022-10-20T15:12:43;7.63;;;4.97;;
75441;SDS011;64019;48.312;14.226;2022-10-20T15:17:41;7.73;;;4.30;;
75441;SDS011;64019;48.312;14.226;2022-10-20T15:22:59;7.73;;;4.90;;
75441;SDS011;64019;48.312;14.226;2022-10-20T15:25:27;8.27;;;5.00;;
75441;SDS011;64019;48.312;14.226;2022-10-20T15:28:00;9.40;;;5.33;;
75441;SDS011;64019;48.312;14.226;2022-10-20T15:30:26;12.60;;;5.07;;
75441;SDS011;64019;48.312;14.226;2022-10-20T15:32:52;8.77;;;5.57;;
75441;SDS011;64019;48.312;14.226;2022-10-20T15:35:18;7.20;;;4.77;;
75441;SDS011;64019;48.312;14.226;2022-10-20T15:37:49;12.03;;;5.17;;
75441;SDS011;64019;48.312;14.226;2022-10-20T15:40:16;9.97;;;5.53;;
75441;SDS011;64019;48.312;14.226;2022-10-20T15:42:43;11.20;;;5.27;;
75441;SDS011;64019;48.312;14.226;2022-10-20T15:45:20;10.17;;;5.50;;
75441;SDS011;64019;48.312;14.226;2022-10-20T15:47:48;15.20;;;5.93;;
75441;SDS011;64019;48.312;14.226;2022-10-20T15:50:13;12.50;;;5.63;;
75441;SDS011;64019;48.312;14.226;2022-10-20T15:52:40;11.80;;;5.23;;
75441;SDS011;64019;48.312;14.226;2022-10-20T15:55:12;13.30;;;5.50;;
75441;SDS011;64019;48.312;14.226;2022-10-20T15:57:55;10.00;;;5.43;;
75441;SDS011;64019;48.312;14.226;2022-10-20T16:00:23;15.87;;;6.10;;
75441;SDS011;64019;48.312;14.226;2022-10-20T16:02:50;10.03;;;5.63;;
75441;SDS011;64019;48.312;14.226;2022-10-20T16:05:17;9.50;;;5.23;;
75441;SDS011;64019;48.312;14.226;2022-10-20T16:07:44;11.80;;;4.67;;
75441;SDS011;64019;48.312;14.226;2022-10-20T16:10:10;10.10;;;5.37;;
75441;SDS011;64019;48.312;14.226;2022-10-20T16:12:37;11.77;;;5.40;;
75441;SDS011;64019;48.312;14.226;2022-10-20T16:15:05;7.03;;;5.23;;
75441;SDS011;64019;48.312;14.226;2022-10-20T16:17:31;9.37;;;5.43;;
75441;SDS011;64019;48.312;14.226;2022-10-20T16:19:57;7.33;;;4.97;;
75441;SDS011;64019;48.312;14.226;2022-10-20T16:22:23;24.03;;;5.40;;
75441;SDS011;64019;48.312;14.226;2022-10-20T16:24:50;11.17;;;5.27;;
75441;SDS011;64019;48.312;14.226;2022-10-20T16:27:16;9.13;;;5.03;;
75441;SDS011;64019;48.312;14.226;2022-10-20T16:29:42;16.03;;;5.90;;
75441;SDS011;64019;48.312;14.226;2022-10-20T16:32:07;10.80;;;5.83;;
75441;SDS011;64019;48.312;14.226;2022-10-20T16:34:33;9.27;;;5.07;;
75441;SDS011;64019;48.312;14.226;2022-10-20T16:36:59;9.73;;;5.53;;
75441;SDS011;64019;48.312;14.226;2022-10-20T16:39:25;7.73;;;5.23;;
75441;SDS011;64019;48.312;14.226;2022-10-20T16:41:50;8.50;;;5.50;;
75441;SDS011;64019;48.312;14.226;2022-10-20T16:44:16;11.57;;;5.47;;
75441;SDS011;64019;48.312;14.226;2022-10-20T16:46:41;7.73;;;5.20;;
75441;SDS011;64019;48.312;14.226;2022-10-20T16:49:07;10.60;;;5.13;;
75441;SDS011;64019;48.312;14.226;2022-10-20T16:51:33;11.90;;;5.30;;
75441;SDS011;64019;48.312;14.226;2022-10-20T16:53:58;10.97;;;4.70;;
75441;SDS011;64019;48.312;14.226;2022-10-20T16:56:24;13.23;;;5.40;;
75441;SDS011;64019;48.312;14.226;2022-10-20T16:58:50;11.23;;;5.30;;
75441;SDS011;64019;48.312;14.226;2022-10-20T17:01:17;6.33;;;4.37;;
75441;SDS011;64019;48.312;14.226;2022-10-20T17:03:50;7.93;;;4.80;;
75441;SDS011;64019;48.312;14.226;2022-10-20T17:06:18;14.63;;;5.47;;
75441;SDS011;64019;48.312;14.226;2022-10-20T17:08:46;9.03;;;4.47;;
75441;SDS011;64019;48.312;14.226;2022-10-20T17:11:13;8.77;;;4.57;;
75441;SDS011;64019;48.312;14.226;2022-10-20T17:13:40;7.50;;;4.80;;
75441;SDS011;64019;48.312;14.226;2022-10-20T17:16:07;9.30;;;4.33;;
75441;SDS011;64019;48.312;14.226;2022-10-20T17:18:35;10.03;;;4.37;;
75441;SDS011;64019;48.312;14.226;2022-10-20T17:21:01;8.03;;;4.33;;
75441;SDS011;64019;48.312;14.226;2022-10-20T17:23:29;6.37;;;4.30;;
75441;SDS011;64019;48.312;14.226;2022-10-20T17:25:57;8.67;;;4.90;;
75441;SDS011;64019;48.312;14.226;2022-10-20T17:28:25;7.43;;;4.33;;
75441;SDS011;64019;48.312;14.226;2022-10-20T17:30:50;5.97;;;4.53;;
75441;SDS011;64019;48.312;14.226;2022-10-20T17:33:21;7.60;;;5.37;;
75441;SDS011;64019;48.312;14.226;2022-10-20T17:35:53;7.73;;;4.70;;
75441;SDS011;64019;48.312;14.226;2022-10-20T17:38:20;6.97;;;4.67;;
75441;SDS011;64019;48.312;14.226;2022-10-20T17:40:46;8.00;;;5.13;;
75441;SDS011;64019;48.312;14.226;2022-10-20T17:43:12;10.03;;;5.93;;
75441;SDS011;64019;48.312;14.226;2022-10-20T17:45:38;21.00;;;9.70;;
75441;SDS011;64019;48.312;14.226;2022-10-20T17:48:05;18.60;;;7.80;;
75441;SDS011;64019;48.312;14.226;2022-10-20T17:50:31;10.77;;;5.90;;
75441;SDS011;64019;48.312;14.226;2022-10-20T17:53:00;11.97;;;5.27;;
75441;SDS011;64019;48.312;14.226;2022-10-20T17:55:26;7.20;;;5.23;;
75441;SDS011;64019;48.312;14.226;2022-10-20T17:57:52;12.47;;;5.70;;
75441;SDS011;64019;48.312;14.226;2022-10-20T18:00:17;14.90;;;6.73;;
75441;SDS011;64019;48.312;14.226;2022-10-20T18:02:47;13.77;;;5.93;;
75441;SDS011;64019;48.312;14.226;2022-10-20T18:05:13;9.40;;;5.47;;
75441;SDS011;64019;48.312;14.226;2022-10-20T18:07:39;9.27;;;5.53;;
75441;SDS011;64019;48.312;14.226;2022-10-20T18:10:05;11.90;;;6.07;;
75441;SDS011;64019;48.312;14.226;2022-10-20T18:12:31;10.00;;;5.50;;